sensor_id;sensor_type;location;lat;lon;timestamp;P1;durP1;ratioP1;P2;durP2;ratioP2
21780;SDS011;52576;53.614;9.894;2022-08-01T00:00:28;15.70;;;13.93;;
21780;SDS011;52576;53.614;9.894;2022-08-01T00:01:30;17.00;;;14.13;;
21780;SDS011;52576;53.614;9.894;2022-08-01T00:02:35;17.63;;;14.48;;
21780;SDS011;52576;53.614;9.894;2022-08-01T00:03:37;20.58;;;13.75;;
21780;SDS011;52576;53.614;9.894;2022-08-01T00:04:40;18.02;;;14.25;;
21780;SDS011;52576;53.614;9.894;2022-08-01T00:05:42;19.52;;;14.57;;
21780;SDS011;52576;53.614;9.894;2022-08-01T00:06:46;18.40;;;13.98;;
21780;SDS011;52576;53.614;9.894;2022-08-01T00:07:48;17.55;;;14.40;;
21780;SDS011;52576;53.614;9.894;2022-08-01T00:08:52;16.50;;;13.93;;
21780;SDS011;52576;53.614;9.894;2022-08-01T00:09:54;15.70;;;13.35;;
21780;SDS011;52576;53.614;9.894;2022-08-01T00:10:57;18.70;;;14.00;;
21780;SDS011;52576;53.614;9.894;2022-08-01T00:12:03;18.10;;;13.73;;
21780;SDS011;52576;53.614;9.894;2022-08-01T00:13:07;15.93;;;13.73;;
21780;SDS011;52576;53.614;9.894;2022-08-01T00:14:11;15.95;;;13.10;;
21780;SDS011;52576;53.614;9.894;2022-08-01T00:15:14;17.60;;;13.88;;
21780;SDS011;52576;53.614;9.894;2022-08-01T00:16:18;19.52;;;13.80;;
21780;SDS011;52576;53.614;9.894;2022-08-01T00:17:24;17.60;;;14.02;;
21780;SDS011;52576;53.614;9.894;2022-08-01T00:18:27;18.02;;;13.60;;
21780;SDS011;52576;53.614;9.894;2022-08-01T00:19:30;15.73;;;13.45;;
21780;SDS011;52576;53.614;9.894;2022-08-01T00:20:33;19.45;;;13.98;;
21780;SDS011;52576;53.614;9.894;2022-08-01T00:21:36;18.65;;;14.20;;
21780;SDS011;52576;53.614;9.894;2022-08-01T00:22:38;19.52;;;13.60;;
21780;SDS011;52576;53.614;9.894;2022-08-01T00:23:41;17.02;;;14.27;;
21780;SDS011;52576;53.614;9.894;2022-08-01T00:24:43;18.05;;;13.90;;
21780;SDS011;52576;53.614;9.894;2022-08-01T00:25:46;15.43;;;13.60;;
21780;SDS011;52576;53.614;9.894;2022-08-01T00:26:48;20.17;;;14.05;;
21780;SDS011;52576;53.614;9.894;2022-08-01T00:27:51;19.05;;;14.73;;
21780;SDS011;52576;53.614;9.894;2022-08-01T00:28:54;19.10;;;14.23;;
21780;SDS011;52576;53.614;9.894;2022-08-01T00:29:58;20.38;;;14.48;;
21780;SDS011;52576;53.614;9.894;2022-08-01T00:31:13;17.50;;;14.30;;
21780;SDS011;52576;53.614;9.894;2022-08-01T00:32:16;19.15;;;14.35;;
21780;SDS011;52576;53.614;9.894;2022-08-01T00:33:18;25.92;;;14.75;;
21780;SDS011;52576;53.614;9.894;2022-08-01T00:34:22;18.95;;;14.57;;
21780;SDS011;52576;53.614;9.894;2022-08-01T00:35:24;17.90;;;14.48;;
21780;SDS011;52576;53.614;9.894;2022-08-01T00:36:27;17.08;;;14.32;;
21780;SDS011;52576;53.614;9.894;2022-08-01T00:37:30;20.60;;;15.00;;
21780;SDS011;52576;53.614;9.894;2022-08-01T00:38:33;17.73;;;14.00;;
21780;SDS011;52576;53.614;9.894;2022-08-01T00:39:35;18.63;;;14.27;;
21780;SDS011;52576;53.614;9.894;2022-08-01T00:40:38;20.17;;;14.65;;
21780;SDS011;52576;53.614;9.894;2022-08-01T00:41:40;22.52;;;14.50;;
21780;SDS011;52576;53.614;9.894;2022-08-01T00:42:44;18.38;;;14.05;;
21780;SDS011;52576;53.614;9.894;2022-08-01T00:43:46;17.70;;;14.27;;
21780;SDS011;52576;53.614;9.894;2022-08-01T00:44:49;18.90;;;14.13;;
21780;SDS011;52576;53.614;9.894;2022-08-01T00:45:51;20.13;;;13.88;;
21780;SDS011;52576;53.614;9.894;2022-08-01T00:46:54;24.83;;;13.88;;
21780;SDS011;52576;53.614;9.894;2022-08-01T00:47:56;19.90;;;13.77;;
21780;SDS011;52576;53.614;9.894;2022-08-01T00:48:59;18.33;;;14.25;;
21780;SDS011;52576;53.614;9.894;2022-08-01T00:50:04;20.05;;;13.45;;
21780;SDS011;52576;53.614;9.894;2022-08-01T00:51:08;21.08;;;13.63;;
21780;SDS011;52576;53.614;9.894;2022-08-01T00:52:10;19.42;;;13.98;;
21780;SDS011;52576;53.614;9.894;2022-08-01T00:53:13;21.05;;;13.52;;
21780;SDS011;52576;53.614;9.894;2022-08-01T00:54:19;17.77;;;13.40;;
21780;SDS011;52576;53.614;9.894;2022-08-01T00:55:22;17.02;;;13.40;;
21780;SDS011;52576;53.614;9.894;2022-08-01T00:56:25;17.65;;;13.10;;
21780;SDS011;52576;53.614;9.894;2022-08-01T00:57:30;20.95;;;12.93;;
21780;SDS011;52576;53.614;9.894;2022-08-01T00:58:52;19.75;;;13.75;;
21780;SDS011;52576;53.614;9.894;2022-08-01T00:59:56;16.77;;;13.18;;
21780;SDS011;52576;53.614;9.894;2022-08-01T01:00:59;16.23;;;13.13;;
21780;SDS011;52576;53.614;9.894;2022-08-01T01:02:04;19.27;;;12.40;;
21780;SDS011;52576;53.614;9.894;2022-08-01T01:03:16;17.48;;;12.50;;
21780;SDS011;52576;53.614;9.894;2022-08-01T01:04:19;18.08;;;12.55;;
21780;SDS011;52576;53.614;9.894;2022-08-01T01:05:23;17.52;;;12.13;;
21780;SDS011;52576;53.614;9.894;2022-08-01T01:06:31;20.20;;;12.68;;
21780;SDS011;52576;53.614;9.894;2022-08-01T01:07:45;14.35;;;11.60;;
21780;SDS011;52576;53.614;9.894;2022-08-01T01:08:55;15.13;;;12.15;;
21780;SDS011;52576;53.614;9.894;2022-08-01T01:10:11;16.60;;;12.35;;
21780;SDS011;52576;53.614;9.894;2022-08-01T01:11:17;16.15;;;11.75;;
21780;SDS011;52576;53.614;9.894;2022-08-01T01:12:29;16.30;;;11.95;;
21780;SDS011;52576;53.614;9.894;2022-08-01T01:13:41;15.95;;;11.60;;
21780;SDS011;52576;53.614;9.894;2022-08-01T01:14:52;16.40;;;12.13;;
21780;SDS011;52576;53.614;9.894;2022-08-01T01:16:04;17.98;;;11.48;;
21780;SDS011;52576;53.614;9.894;2022-08-01T01:17:11;16.90;;;12.00;;
21780;SDS011;52576;53.614;9.894;2022-08-01T01:18:33;15.85;;;11.23;;
21780;SDS011;52576;53.614;9.894;2022-08-01T01:19:44;18.15;;;11.65;;
21780;SDS011;52576;53.614;9.894;2022-08-01T01:20:51;14.77;;;11.20;;
21780;SDS011;52576;53.614;9.894;2022-08-01T01:22:05;16.48;;;11.77;;
21780;SDS011;52576;53.614;9.894;2022-08-01T01:23:21;19.33;;;11.80;;
21780;SDS011;52576;53.614;9.894;2022-08-01T01:24:38;15.50;;;12.25;;
21780;SDS011;52576;53.614;9.894;2022-08-01T01:25:51;16.08;;;11.75;;
21780;SDS011;52576;53.614;9.894;2022-08-01T01:27:06;21.13;;;12.05;;
21780;SDS011;52576;53.614;9.894;2022-08-01T01:28:20;16.88;;;12.25;;
21780;SDS011;52576;53.614;9.894;2022-08-01T01:29:31;16.23;;;12.45;;
21780;SDS011;52576;53.614;9.894;2022-08-01T01:30:57;17.95;;;12.90;;
21780;SDS011;52576;53.614;9.894;2022-08-01T01:32:04;22.52;;;13.48;;
21780;SDS011;52576;53.614;9.894;2022-08-01T01:33:10;21.30;;;13.45;;
21780;SDS011;52576;53.614;9.894;2022-08-01T01:34:15;20.58;;;13.38;;
21780;SDS011;52576;53.614;9.894;2022-08-01T01:35:21;16.30;;;12.73;;
21780;SDS011;52576;53.614;9.894;2022-08-01T01:36:26;19.45;;;13.82;;
21780;SDS011;52576;53.614;9.894;2022-08-01T01:37:30;19.27;;;14.00;;
21780;SDS011;52576;53.614;9.894;2022-08-01T01:38:36;19.40;;;14.00;;
21780;SDS011;52576;53.614;9.894;2022-08-01T01:39:43;18.40;;;13.10;;
21780;SDS011;52576;53.614;9.894;2022-08-01T01:40:55;18.42;;;13.75;;
21780;SDS011;52576;53.614;9.894;2022-08-01T01:41:59;18.40;;;13.70;;
21780;SDS011;52576;53.614;9.894;2022-08-01T01:43:04;17.08;;;13.35;;
21780;SDS011;52576;53.614;9.894;2022-08-01T01:44:11;17.58;;;13.77;;
21780;SDS011;52576;53.614;9.894;2022-08-01T01:45:17;19.27;;;13.75;;
21780;SDS011;52576;53.614;9.894;2022-08-01T01:46:20;21.02;;;13.75;;
21780;SDS011;52576;53.614;9.894;2022-08-01T01:47:28;19.83;;;13.82;;
21780;SDS011;52576;53.614;9.894;2022-08-01T01:48:32;18.10;;;13.70;;
21780;SDS011;52576;53.614;9.894;2022-08-01T01:49:37;18.88;;;13.75;;
21780;SDS011;52576;53.614;9.894;2022-08-01T01:50:42;24.25;;;14.40;;
21780;SDS011;52576;53.614;9.894;2022-08-01T01:51:46;19.58;;;14.68;;
21780;SDS011;52576;53.614;9.894;2022-08-01T01:53:03;22.77;;;14.10;;
21780;SDS011;52576;53.614;9.894;2022-08-01T01:54:15;18.35;;;13.98;;
21780;SDS011;52576;53.614;9.894;2022-08-01T01:55:18;26.50;;;14.48;;
21780;SDS011;52576;53.614;9.894;2022-08-01T01:56:23;23.95;;;14.50;;
21780;SDS011;52576;53.614;9.894;2022-08-01T01:57:27;23.58;;;12.77;;
21780;SDS011;52576;53.614;9.894;2022-08-01T01:58:34;21.48;;;13.80;;
21780;SDS011;52576;53.614;9.894;2022-08-01T01:59:40;20.25;;;14.10;;
21780;SDS011;52576;53.614;9.894;2022-08-01T02:00:46;23.05;;;13.57;;
21780;SDS011;52576;53.614;9.894;2022-08-01T02:01:51;22.38;;;12.73;;
21780;SDS011;52576;53.614;9.894;2022-08-01T02:03:06;19.80;;;13.50;;
21780;SDS011;52576;53.614;9.894;2022-08-01T02:04:10;20.27;;;13.35;;
21780;SDS011;52576;53.614;9.894;2022-08-01T02:05:15;17.20;;;12.75;;
21780;SDS011;52576;53.614;9.894;2022-08-01T02:06:17;27.70;;;12.90;;
21780;SDS011;52576;53.614;9.894;2022-08-01T02:07:21;20.17;;;12.55;;
21780;SDS011;52576;53.614;9.894;2022-08-01T02:08:25;17.73;;;12.35;;
21780;SDS011;52576;53.614;9.894;2022-08-01T02:09:33;16.98;;;12.52;;
21780;SDS011;52576;53.614;9.894;2022-08-01T02:10:37;19.83;;;12.52;;
21780;SDS011;52576;53.614;9.894;2022-08-01T02:11:41;21.05;;;12.15;;
21780;SDS011;52576;53.614;9.894;2022-08-01T02:13:04;17.25;;;12.38;;
21780;SDS011;52576;53.614;9.894;2022-08-01T02:14:08;24.25;;;12.32;;
21780;SDS011;52576;53.614;9.894;2022-08-01T02:15:12;21.52;;;12.27;;
21780;SDS011;52576;53.614;9.894;2022-08-01T02:16:19;21.15;;;12.18;;
21780;SDS011;52576;53.614;9.894;2022-08-01T02:17:24;18.83;;;12.23;;
21780;SDS011;52576;53.614;9.894;2022-08-01T02:18:29;20.27;;;12.15;;
21780;SDS011;52576;53.614;9.894;2022-08-01T02:19:32;18.77;;;11.80;;
21780;SDS011;52576;53.614;9.894;2022-08-01T02:20:39;16.42;;;11.70;;
21780;SDS011;52576;53.614;9.894;2022-08-01T02:21:44;17.92;;;12.25;;
21780;SDS011;52576;53.614;9.894;2022-08-01T02:22:51;15.70;;;11.77;;
21780;SDS011;52576;53.614;9.894;2022-08-01T02:23:59;19.13;;;12.35;;
21780;SDS011;52576;53.614;9.894;2022-08-01T02:25:08;17.15;;;11.30;;
21780;SDS011;52576;53.614;9.894;2022-08-01T02:26:16;16.08;;;11.48;;
21780;SDS011;52576;53.614;9.894;2022-08-01T02:27:22;16.08;;;10.68;;
21780;SDS011;52576;53.614;9.894;2022-08-01T02:28:28;14.82;;;10.32;;
21780;SDS011;52576;53.614;9.894;2022-08-01T02:29:35;20.10;;;10.18;;
21780;SDS011;52576;53.614;9.894;2022-08-01T02:30:44;17.33;;;10.02;;
21780;SDS011;52576;53.614;9.894;2022-08-01T02:31:50;16.85;;;9.88;;
21780;SDS011;52576;53.614;9.894;2022-08-01T02:32:58;15.80;;;9.20;;
21780;SDS011;52576;53.614;9.894;2022-08-01T02:34:04;15.98;;;9.48;;
21780;SDS011;52576;53.614;9.894;2022-08-01T02:35:09;10.88;;;8.90;;
21780;SDS011;52576;53.614;9.894;2022-08-01T02:36:14;15.00;;;9.75;;
21780;SDS011;52576;53.614;9.894;2022-08-01T02:37:33;14.43;;;9.18;;
21780;SDS011;52576;53.614;9.894;2022-08-01T02:38:44;17.08;;;8.95;;
21780;SDS011;52576;53.614;9.894;2022-08-01T02:39:47;13.27;;;9.25;;
21780;SDS011;52576;53.614;9.894;2022-08-01T02:40:54;11.55;;;8.52;;
21780;SDS011;52576;53.614;9.894;2022-08-01T02:42:02;15.38;;;8.93;;
21780;SDS011;52576;53.614;9.894;2022-08-01T02:43:09;16.90;;;9.45;;
21780;SDS011;52576;53.614;9.894;2022-08-01T02:44:15;13.70;;;9.10;;
21780;SDS011;52576;53.614;9.894;2022-08-01T02:45:22;13.57;;;9.27;;
21780;SDS011;52576;53.614;9.894;2022-08-01T02:46:31;13.90;;;9.00;;
21780;SDS011;52576;53.614;9.894;2022-08-01T02:47:38;16.60;;;9.10;;
21780;SDS011;52576;53.614;9.894;2022-08-01T02:48:43;14.05;;;9.13;;
21780;SDS011;52576;53.614;9.894;2022-08-01T02:49:48;11.73;;;9.18;;
21780;SDS011;52576;53.614;9.894;2022-08-01T02:50:55;16.60;;;9.20;;
21780;SDS011;52576;53.614;9.894;2022-08-01T02:52:00;21.60;;;9.75;;
21780;SDS011;52576;53.614;9.894;2022-08-01T02:53:07;14.38;;;9.15;;
21780;SDS011;52576;53.614;9.894;2022-08-01T02:54:11;14.43;;;9.80;;
21780;SDS011;52576;53.614;9.894;2022-08-01T02:55:17;15.68;;;9.25;;
21780;SDS011;52576;53.614;9.894;2022-08-01T02:56:21;16.30;;;9.60;;
21780;SDS011;52576;53.614;9.894;2022-08-01T02:57:36;23.55;;;9.60;;
21780;SDS011;52576;53.614;9.894;2022-08-01T02:58:53;20.48;;;9.90;;
21780;SDS011;52576;53.614;9.894;2022-08-01T02:59:56;11.82;;;9.15;;
21780;SDS011;52576;53.614;9.894;2022-08-01T03:01:00;13.52;;;9.93;;
21780;SDS011;52576;53.614;9.894;2022-08-01T03:02:04;14.20;;;9.50;;
21780;SDS011;52576;53.614;9.894;2022-08-01T03:03:11;10.82;;;9.02;;
21780;SDS011;52576;53.614;9.894;2022-08-01T03:04:15;19.25;;;8.98;;
21780;SDS011;52576;53.614;9.894;2022-08-01T03:05:20;11.45;;;8.82;;
21780;SDS011;52576;53.614;9.894;2022-08-01T03:06:23;13.48;;;9.10;;
21780;SDS011;52576;53.614;9.894;2022-08-01T03:07:28;16.10;;;9.40;;
21780;SDS011;52576;53.614;9.894;2022-08-01T03:08:35;14.77;;;9.73;;
21780;SDS011;52576;53.614;9.894;2022-08-01T03:09:39;18.52;;;9.15;;
21780;SDS011;52576;53.614;9.894;2022-08-01T03:10:45;13.45;;;8.88;;
21780;SDS011;52576;53.614;9.894;2022-08-01T03:11:48;13.70;;;8.95;;
21780;SDS011;52576;53.614;9.894;2022-08-01T03:12:53;16.60;;;9.13;;
21780;SDS011;52576;53.614;9.894;2022-08-01T03:13:56;14.35;;;9.05;;
21780;SDS011;52576;53.614;9.894;2022-08-01T03:15:04;14.10;;;9.45;;
21780;SDS011;52576;53.614;9.894;2022-08-01T03:16:10;13.98;;;9.05;;
21780;SDS011;52576;53.614;9.894;2022-08-01T03:17:15;11.50;;;9.00;;
21780;SDS011;52576;53.614;9.894;2022-08-01T03:18:21;13.25;;;9.27;;
21780;SDS011;52576;53.614;9.894;2022-08-01T03:19:27;16.80;;;9.77;;
21780;SDS011;52576;53.614;9.894;2022-08-01T03:20:32;15.85;;;9.57;;
21780;SDS011;52576;53.614;9.894;2022-08-01T03:21:36;18.88;;;10.82;;
21780;SDS011;52576;53.614;9.894;2022-08-01T03:22:40;13.23;;;10.00;;
21780;SDS011;52576;53.614;9.894;2022-08-01T03:23:45;17.85;;;10.85;;
21780;SDS011;52576;53.614;9.894;2022-08-01T03:24:55;18.10;;;10.63;;
21780;SDS011;52576;53.614;9.894;2022-08-01T03:26:00;18.42;;;10.52;;
21780;SDS011;52576;53.614;9.894;2022-08-01T03:27:03;15.25;;;10.82;;
21780;SDS011;52576;53.614;9.894;2022-08-01T03:28:08;15.82;;;11.23;;
21780;SDS011;52576;53.614;9.894;2022-08-01T03:29:16;16.88;;;11.65;;
21780;SDS011;52576;53.614;9.894;2022-08-01T03:30:21;16.45;;;10.90;;
21780;SDS011;52576;53.614;9.894;2022-08-01T03:31:25;15.43;;;10.68;;
21780;SDS011;52576;53.614;9.894;2022-08-01T03:32:29;15.40;;;11.07;;
21780;SDS011;52576;53.614;9.894;2022-08-01T03:33:33;17.02;;;11.50;;
21780;SDS011;52576;53.614;9.894;2022-08-01T03:34:36;16.52;;;10.68;;
21780;SDS011;52576;53.614;9.894;2022-08-01T03:35:42;16.80;;;10.93;;
21780;SDS011;52576;53.614;9.894;2022-08-01T03:36:49;14.13;;;10.32;;
21780;SDS011;52576;53.614;9.894;2022-08-01T03:37:58;15.00;;;10.23;;
21780;SDS011;52576;53.614;9.894;2022-08-01T03:39:17;16.13;;;8.98;;
21780;SDS011;52576;53.614;9.894;2022-08-01T03:40:23;12.90;;;9.50;;
21780;SDS011;52576;53.614;9.894;2022-08-01T03:41:32;13.82;;;9.82;;
21780;SDS011;52576;53.614;9.894;2022-08-01T03:42:41;17.02;;;9.18;;
21780;SDS011;52576;53.614;9.894;2022-08-01T03:43:48;11.90;;;8.98;;
21780;SDS011;52576;53.614;9.894;2022-08-01T03:44:59;14.82;;;7.97;;
21780;SDS011;52576;53.614;9.894;2022-08-01T03:46:05;11.60;;;8.25;;
21780;SDS011;52576;53.614;9.894;2022-08-01T03:47:12;8.75;;;6.82;;
21780;SDS011;52576;53.614;9.894;2022-08-01T03:48:18;9.27;;;6.25;;
21780;SDS011;52576;53.614;9.894;2022-08-01T03:49:25;10.25;;;6.88;;
21780;SDS011;52576;53.614;9.894;2022-08-01T03:50:33;12.63;;;6.40;;
21780;SDS011;52576;53.614;9.894;2022-08-01T03:51:38;7.07;;;5.97;;
21780;SDS011;52576;53.614;9.894;2022-08-01T03:52:41;8.93;;;6.28;;
21780;SDS011;52576;53.614;9.894;2022-08-01T03:53:47;10.80;;;6.45;;
21780;SDS011;52576;53.614;9.894;2022-08-01T03:54:51;6.95;;;5.70;;
21780;SDS011;52576;53.614;9.894;2022-08-01T03:55:58;7.10;;;6.07;;
21780;SDS011;52576;53.614;9.894;2022-08-01T03:57:02;8.60;;;6.05;;
21780;SDS011;52576;53.614;9.894;2022-08-01T03:58:07;11.93;;;6.32;;
21780;SDS011;52576;53.614;9.894;2022-08-01T03:59:12;8.77;;;5.85;;
21780;SDS011;52576;53.614;9.894;2022-08-01T04:00:17;8.77;;;6.18;;
21780;SDS011;52576;53.614;9.894;2022-08-01T04:01:20;15.27;;;6.30;;
21780;SDS011;52576;53.614;9.894;2022-08-01T04:02:23;9.68;;;5.90;;
21780;SDS011;52576;53.614;9.894;2022-08-01T04:03:27;9.95;;;5.88;;
21780;SDS011;52576;53.614;9.894;2022-08-01T04:04:32;10.00;;;6.10;;
21780;SDS011;52576;53.614;9.894;2022-08-01T04:05:35;9.52;;;5.80;;
21780;SDS011;52576;53.614;9.894;2022-08-01T04:06:38;9.63;;;5.95;;
21780;SDS011;52576;53.614;9.894;2022-08-01T04:07:40;10.68;;;6.45;;
21780;SDS011;52576;53.614;9.894;2022-08-01T04:08:48;13.30;;;6.10;;
21780;SDS011;52576;53.614;9.894;2022-08-01T04:09:57;10.77;;;6.30;;
21780;SDS011;52576;53.614;9.894;2022-08-01T04:11:00;14.70;;;6.93;;
21780;SDS011;52576;53.614;9.894;2022-08-01T04:12:03;9.50;;;5.70;;
21780;SDS011;52576;53.614;9.894;2022-08-01T04:13:12;11.38;;;6.50;;
21780;SDS011;52576;53.614;9.894;2022-08-01T04:14:15;9.45;;;6.35;;
21780;SDS011;52576;53.614;9.894;2022-08-01T04:15:18;9.48;;;6.40;;
21780;SDS011;52576;53.614;9.894;2022-08-01T04:16:21;13.30;;;6.32;;
21780;SDS011;52576;53.614;9.894;2022-08-01T04:17:24;13.10;;;6.70;;
21780;SDS011;52576;53.614;9.894;2022-08-01T04:18:26;11.32;;;6.43;;
21780;SDS011;52576;53.614;9.894;2022-08-01T04:21:05;15.85;;;6.43;;
21780;SDS011;52576;53.614;9.894;2022-08-01T04:22:09;13.20;;;6.93;;
21780;SDS011;52576;53.614;9.894;2022-08-01T04:23:12;12.32;;;6.10;;
21780;SDS011;52576;53.614;9.894;2022-08-01T04:24:17;10.27;;;5.93;;
21780;SDS011;52576;53.614;9.894;2022-08-01T04:25:21;10.98;;;5.80;;
21780;SDS011;52576;53.614;9.894;2022-08-01T04:26:29;8.95;;;5.72;;
21780;SDS011;52576;53.614;9.894;2022-08-01T04:27:35;10.45;;;5.80;;
21780;SDS011;52576;53.614;9.894;2022-08-01T04:28:52;7.70;;;5.00;;
21780;SDS011;52576;53.614;9.894;2022-08-01T04:29:57;8.18;;;5.40;;
21780;SDS011;52576;53.614;9.894;2022-08-01T04:31:01;12.32;;;5.63;;
21780;SDS011;52576;53.614;9.894;2022-08-01T04:32:08;10.40;;;5.32;;
21780;SDS011;52576;53.614;9.894;2022-08-01T04:33:14;9.88;;;5.05;;
21780;SDS011;52576;53.614;9.894;2022-08-01T04:34:19;8.77;;;4.80;;
21780;SDS011;52576;53.614;9.894;2022-08-01T04:35:24;6.55;;;4.60;;
21780;SDS011;52576;53.614;9.894;2022-08-01T04:36:51;10.38;;;5.07;;
21780;SDS011;52576;53.614;9.894;2022-08-01T04:37:56;15.40;;;4.72;;
21780;SDS011;52576;53.614;9.894;2022-08-01T04:39:00;9.90;;;4.60;;
21780;SDS011;52576;53.614;9.894;2022-08-01T04:40:05;7.57;;;4.43;;
21780;SDS011;52576;53.614;9.894;2022-08-01T04:41:09;8.25;;;4.18;;
21780;SDS011;52576;53.614;9.894;2022-08-01T04:42:13;8.27;;;4.13;;
21780;SDS011;52576;53.614;9.894;2022-08-01T04:43:16;8.00;;;4.30;;
21780;SDS011;52576;53.614;9.894;2022-08-01T04:44:20;8.55;;;4.13;;
21780;SDS011;52576;53.614;9.894;2022-08-01T04:45:23;7.88;;;4.13;;
21780;SDS011;52576;53.614;9.894;2022-08-01T04:46:27;8.73;;;4.03;;
21780;SDS011;52576;53.614;9.894;2022-08-01T04:47:30;6.03;;;3.83;;
21780;SDS011;52576;53.614;9.894;2022-08-01T04:48:34;10.65;;;3.83;;
21780;SDS011;52576;53.614;9.894;2022-08-01T04:49:38;9.57;;;4.13;;
21780;SDS011;52576;53.614;9.894;2022-08-01T04:50:49;4.95;;;4.05;;
21780;SDS011;52576;53.614;9.894;2022-08-01T04:51:55;7.25;;;3.60;;
21780;SDS011;52576;53.614;9.894;2022-08-01T04:52:59;6.28;;;3.22;;
21780;SDS011;52576;53.614;9.894;2022-08-01T04:54:04;4.10;;;3.15;;
21780;SDS011;52576;53.614;9.894;2022-08-01T04:55:09;4.50;;;2.50;;
21780;SDS011;52576;53.614;9.894;2022-08-01T04:56:12;5.00;;;2.45;;
21780;SDS011;52576;53.614;9.894;2022-08-01T04:57:14;6.25;;;3.33;;
21780;SDS011;52576;53.614;9.894;2022-08-01T04:58:18;6.30;;;3.00;;
21780;SDS011;52576;53.614;9.894;2022-08-01T04:59:20;5.57;;;3.00;;
21780;SDS011;52576;53.614;9.894;2022-08-01T05:00:40;4.22;;;2.45;;
21780;SDS011;52576;53.614;9.894;2022-08-01T05:01:47;5.85;;;2.75;;
21780;SDS011;52576;53.614;9.894;2022-08-01T05:02:50;4.20;;;2.55;;
21780;SDS011;52576;53.614;9.894;2022-08-01T05:03:53;4.07;;;2.47;;
21780;SDS011;52576;53.614;9.894;2022-08-01T05:04:55;4.95;;;2.58;;
21780;SDS011;52576;53.614;9.894;2022-08-01T05:05:58;4.03;;;1.95;;
21780;SDS011;52576;53.614;9.894;2022-08-01T05:07:02;4.70;;;2.30;;
21780;SDS011;52576;53.614;9.894;2022-08-01T05:08:06;5.18;;;1.95;;
21780;SDS011;52576;53.614;9.894;2022-08-01T05:09:08;3.55;;;2.05;;
21780;SDS011;52576;53.614;9.894;2022-08-01T05:10:11;5.70;;;2.30;;
21780;SDS011;52576;53.614;9.894;2022-08-01T05:11:14;3.45;;;2.15;;
21780;SDS011;52576;53.614;9.894;2022-08-01T05:12:22;4.32;;;2.10;;
21780;SDS011;52576;53.614;9.894;2022-08-01T05:13:25;4.82;;;2.25;;
21780;SDS011;52576;53.614;9.894;2022-08-01T05:14:28;5.68;;;2.35;;
21780;SDS011;52576;53.614;9.894;2022-08-01T05:15:34;8.68;;;2.50;;
21780;SDS011;52576;53.614;9.894;2022-08-01T05:16:38;5.05;;;2.47;;
21780;SDS011;52576;53.614;9.894;2022-08-01T05:17:41;3.78;;;2.20;;
21780;SDS011;52576;53.614;9.894;2022-08-01T05:18:44;6.20;;;2.47;;
21780;SDS011;52576;53.614;9.894;2022-08-01T05:19:48;6.35;;;2.65;;
21780;SDS011;52576;53.614;9.894;2022-08-01T05:20:51;5.50;;;2.70;;
21780;SDS011;52576;53.614;9.894;2022-08-01T05:21:53;3.78;;;2.60;;
21780;SDS011;52576;53.614;9.894;2022-08-01T05:23:03;5.28;;;2.70;;
21780;SDS011;52576;53.614;9.894;2022-08-01T05:24:05;5.97;;;2.97;;
21780;SDS011;52576;53.614;9.894;2022-08-01T05:25:09;6.90;;;2.90;;
21780;SDS011;52576;53.614;9.894;2022-08-01T05:26:13;8.15;;;2.80;;
21780;SDS011;52576;53.614;9.894;2022-08-01T05:27:17;6.40;;;2.85;;
21780;SDS011;52576;53.614;9.894;2022-08-01T05:28:19;7.18;;;3.13;;
21780;SDS011;52576;53.614;9.894;2022-08-01T05:29:22;5.30;;;3.65;;
21780;SDS011;52576;53.614;9.894;2022-08-01T05:30:25;7.93;;;3.90;;
21780;SDS011;52576;53.614;9.894;2022-08-01T05:31:28;6.97;;;3.92;;
21780;SDS011;52576;53.614;9.894;2022-08-01T05:32:30;6.63;;;4.38;;
21780;SDS011;52576;53.614;9.894;2022-08-01T05:33:33;10.25;;;4.25;;
21780;SDS011;52576;53.614;9.894;2022-08-01T05:34:35;6.50;;;4.55;;
21780;SDS011;52576;53.614;9.894;2022-08-01T05:35:38;7.25;;;4.82;;
21780;SDS011;52576;53.614;9.894;2022-08-01T05:36:48;8.15;;;4.50;;
21780;SDS011;52576;53.614;9.894;2022-08-01T05:37:58;10.07;;;4.93;;
21780;SDS011;52576;53.614;9.894;2022-08-01T05:39:01;6.30;;;4.60;;
21780;SDS011;52576;53.614;9.894;2022-08-01T05:40:05;6.85;;;4.45;;
21780;SDS011;52576;53.614;9.894;2022-08-01T05:41:07;6.65;;;4.25;;
21780;SDS011;52576;53.614;9.894;2022-08-01T05:42:10;11.70;;;4.30;;
21780;SDS011;52576;53.614;9.894;2022-08-01T05:43:13;7.13;;;3.78;;
21780;SDS011;52576;53.614;9.894;2022-08-01T05:44:15;14.10;;;4.55;;
21780;SDS011;52576;53.614;9.894;2022-08-01T05:45:18;11.13;;;3.75;;
21780;SDS011;52576;53.614;9.894;2022-08-01T05:46:21;9.50;;;4.32;;
21780;SDS011;52576;53.614;9.894;2022-08-01T05:47:28;8.18;;;4.07;;
21780;SDS011;52576;53.614;9.894;2022-08-01T05:48:31;8.52;;;4.70;;
21780;SDS011;52576;53.614;9.894;2022-08-01T05:49:33;10.40;;;4.70;;
21780;SDS011;52576;53.614;9.894;2022-08-01T05:50:36;8.40;;;4.88;;
21780;SDS011;52576;53.614;9.894;2022-08-01T05:51:38;12.60;;;5.43;;
21780;SDS011;52576;53.614;9.894;2022-08-01T05:52:44;10.43;;;5.88;;
21780;SDS011;52576;53.614;9.894;2022-08-01T05:53:46;14.45;;;6.13;;
21780;SDS011;52576;53.614;9.894;2022-08-01T05:54:50;7.72;;;5.60;;
21780;SDS011;52576;53.614;9.894;2022-08-01T05:55:53;13.23;;;6.50;;
21780;SDS011;52576;53.614;9.894;2022-08-01T05:56:55;11.57;;;6.70;;
21780;SDS011;52576;53.614;9.894;2022-08-01T05:58:02;17.27;;;7.15;;
21780;SDS011;52576;53.614;9.894;2022-08-01T05:59:04;11.80;;;7.32;;
21780;SDS011;52576;53.614;9.894;2022-08-01T06:00:08;11.90;;;7.13;;
21780;SDS011;52576;53.614;9.894;2022-08-01T06:01:14;14.15;;;7.35;;
21780;SDS011;52576;53.614;9.894;2022-08-01T06:02:17;13.52;;;7.68;;
21780;SDS011;52576;53.614;9.894;2022-08-01T06:03:19;14.18;;;7.57;;
21780;SDS011;52576;53.614;9.894;2022-08-01T06:04:22;11.30;;;6.75;;
21780;SDS011;52576;53.614;9.894;2022-08-01T06:05:24;15.93;;;7.60;;
21780;SDS011;52576;53.614;9.894;2022-08-01T06:06:28;11.65;;;6.53;;
21780;SDS011;52576;53.614;9.894;2022-08-01T06:07:31;13.38;;;6.80;;
21780;SDS011;52576;53.614;9.894;2022-08-01T06:08:33;12.57;;;6.28;;
21780;SDS011;52576;53.614;9.894;2022-08-01T06:09:36;15.80;;;6.13;;
21780;SDS011;52576;53.614;9.894;2022-08-01T06:10:39;10.50;;;6.05;;
21780;SDS011;52576;53.614;9.894;2022-08-01T06:11:42;12.85;;;6.03;;
21780;SDS011;52576;53.614;9.894;2022-08-01T06:12:45;12.43;;;5.40;;
21780;SDS011;52576;53.614;9.894;2022-08-01T06:13:47;9.45;;;5.47;;
21780;SDS011;52576;53.614;9.894;2022-08-01T06:14:50;10.30;;;5.20;;
21780;SDS011;52576;53.614;9.894;2022-08-01T06:15:52;8.75;;;5.30;;
21780;SDS011;52576;53.614;9.894;2022-08-01T06:16:55;13.23;;;5.65;;
21780;SDS011;52576;53.614;9.894;2022-08-01T06:17:57;10.57;;;5.63;;
21780;SDS011;52576;53.614;9.894;2022-08-01T06:19:01;11.00;;;5.38;;
21780;SDS011;52576;53.614;9.894;2022-08-01T06:20:04;11.23;;;5.72;;
21780;SDS011;52576;53.614;9.894;2022-08-01T06:21:07;15.15;;;5.95;;
21780;SDS011;52576;53.614;9.894;2022-08-01T06:22:10;12.30;;;5.60;;
21780;SDS011;52576;53.614;9.894;2022-08-01T06:23:13;16.33;;;5.82;;
21780;SDS011;52576;53.614;9.894;2022-08-01T06:24:33;14.88;;;5.70;;
21780;SDS011;52576;53.614;9.894;2022-08-01T06:25:36;12.30;;;6.22;;
21780;SDS011;52576;53.614;9.894;2022-08-01T06:26:39;14.10;;;6.50;;
21780;SDS011;52576;53.614;9.894;2022-08-01T06:27:42;15.25;;;6.60;;
21780;SDS011;52576;53.614;9.894;2022-08-01T06:28:44;13.43;;;6.28;;